sensor_id;sensor_type;location;lat;lon;timestamp;temperature;humidity
2409;DHT22;8463;48.094;7.970;2022-12-10T00:02:14;0.90;66.40
2409;DHT22;8463;48.094;7.970;2022-12-10T00:04:39;1.40;66.70
2409;DHT22;8463;48.094;7.970;2022-12-10T00:07:05;0.90;66.20
2409;DHT22;8463;48.094;7.970;2022-12-10T00:09:30;1.00;66.30
2409;DHT22;8463;48.094;7.970;2022-12-10T00:11:56;1.00;66.30
2409;DHT22;8463;48.094;7.970;2022-12-10T00:14:22;1.00;66.30
2409;DHT22;8463;48.094;7.970;2022-12-10T00:16:47;1.40;66.50
2409;DHT22;8463;48.094;7.970;2022-12-10T00:19:13;1.10;66.30
2409;DHT22;8463;48.094;7.970;2022-12-10T00:21:38;1.10;66.20
2409;DHT22;8463;48.094;7.970;2022-12-10T00:24:05;1.20;66.40
2409;DHT22;8463;48.094;7.970;2022-12-10T00:26:40;1.20;66.40
2409;DHT22;8463;48.094;7.970;2022-12-10T00:29:10;1.20;66.30
2409;DHT22;8463;48.094;7.970;2022-12-10T00:31:37;1.20;65.70
2409;DHT22;8463;48.094;7.970;2022-12-10T00:34:05;1.10;65.30
2409;DHT22;8463;48.094;7.970;2022-12-10T00:36:54;1.00;65.20
2409;DHT22;8463;48.094;7.970;2022-12-10T00:39:19;1.00;65.20
2409;DHT22;8463;48.094;7.970;2022-12-10T00:41:46;1.10;65.30
2409;DHT22;8463;48.094;7.970;2022-12-10T00:44:12;1.00;64.70
2409;DHT22;8463;48.094;7.970;2022-12-10T00:46:38;1.00;65.20
2409;DHT22;8463;48.094;7.970;2022-12-10T00:49:04;1.00;65.20
2409;DHT22;8463;48.094;7.970;2022-12-10T00:51:29;1.00;65.20
2409;DHT22;8463;48.094;7.970;2022-12-10T00:53:56;1.00;65.30
2409;DHT22;8463;48.094;7.970;2022-12-10T00:56:26;1.00;65.30
2409;DHT22;8463;48.094;7.970;2022-12-10T00:58:52;1.10;65.50
2409;DHT22;8463;48.094;7.970;2022-12-10T01:03:55;1.20;65.80
2409;DHT22;8463;48.094;7.970;2022-12-10T01:08:48;1.20;65.10
2409;DHT22;8463;48.094;7.970;2022-12-10T01:11:16;1.10;64.30
2409;DHT22;8463;48.094;7.970;2022-12-10T01:13:43;1.90;65.30
2409;DHT22;8463;48.094;7.970;2022-12-10T01:16:11;1.50;64.60
2409;DHT22;8463;48.094;7.970;2022-12-10T01:18:37;1.00;64.50
2409;DHT22;8463;48.094;7.970;2022-12-10T01:21:05;1.00;64.80
2409;DHT22;8463;48.094;7.970;2022-12-10T01:23:32;0.90;65.20
2409;DHT22;8463;48.094;7.970;2022-12-10T01:26:00;0.90;65.70
2409;DHT22;8463;48.094;7.970;2022-12-10T01:28:28;0.80;65.70
2409;DHT22;8463;48.094;7.970;2022-12-10T01:30:54;0.80;66.40
2409;DHT22;8463;48.094;7.970;2022-12-10T01:33:20;0.80;66.30
2409;DHT22;8463;48.094;7.970;2022-12-10T01:35:45;0.80;66.60
2409;DHT22;8463;48.094;7.970;2022-12-10T01:38:11;0.80;66.50
2409;DHT22;8463;48.094;7.970;2022-12-10T01:40:37;0.90;67.10
2409;DHT22;8463;48.094;7.970;2022-12-10T01:43:03;0.80;66.70
2409;DHT22;8463;48.094;7.970;2022-12-10T01:45:29;0.90;66.90
2409;DHT22;8463;48.094;7.970;2022-12-10T01:47:54;1.00;67.10
2409;DHT22;8463;48.094;7.970;2022-12-10T01:50:20;1.00;67.10
2409;DHT22;8463;48.094;7.970;2022-12-10T01:52:46;1.70;67.70
2409;DHT22;8463;48.094;7.970;2022-12-10T01:58:03;1.20;67.30
2409;DHT22;8463;48.094;7.970;2022-12-10T02:00:30;1.20;67.10
2409;DHT22;8463;48.094;7.970;2022-12-10T02:03:04;1.00;66.20
2409;DHT22;8463;48.094;7.970;2022-12-10T02:05:39;1.00;65.90
2409;DHT22;8463;48.094;7.970;2022-12-10T02:16:02;0.90;65.10
2409;DHT22;8463;48.094;7.970;2022-12-10T02:21:02;1.40;66.00
2409;DHT22;8463;48.094;7.970;2022-12-10T02:23:50;1.00;65.70
2409;DHT22;8463;48.094;7.970;2022-12-10T02:26:39;1.10;65.80
2409;DHT22;8463;48.094;7.970;2022-12-10T02:31:35;1.10;65.20
2409;DHT22;8463;48.094;7.970;2022-12-10T02:34:04;1.10;65.50
2409;DHT22;8463;48.094;7.970;2022-12-10T02:36:35;1.00;65.20
2409;DHT22;8463;48.094;7.970;2022-12-10T02:39:03;1.10;65.30
2409;DHT22;8463;48.094;7.970;2022-12-10T02:41:37;1.00;65.30
2409;DHT22;8463;48.094;7.970;2022-12-10T02:44:07;1.30;65.60
2409;DHT22;8463;48.094;7.970;2022-12-10T02:46:35;1.10;65.60
2409;DHT22;8463;48.094;7.970;2022-12-10T02:49:03;1.20;65.70
2409;DHT22;8463;48.094;7.970;2022-12-10T02:51:29;1.20;65.70
2409;DHT22;8463;48.094;7.970;2022-12-10T02:54:03;1.20;65.50
2409;DHT22;8463;48.094;7.970;2022-12-10T02:56:42;1.20;65.40
2409;DHT22;8463;48.094;7.970;2022-12-10T02:59:33;1.30;65.50
2409;DHT22;8463;48.094;7.970;2022-12-10T03:02:19;1.40;64.70
2409;DHT22;8463;48.094;7.970;2022-12-10T03:05:00;1.20;64.90
2409;DHT22;8463;48.094;7.970;2022-12-10T03:07:40;1.20;64.70
2409;DHT22;8463;48.094;7.970;2022-12-10T03:10:37;1.20;64.20
2409;DHT22;8463;48.094;7.970;2022-12-10T03:13:02;1.20;64.30
2409;DHT22;8463;48.094;7.970;2022-12-10T03:15:33;1.20;64.20
2409;DHT22;8463;48.094;7.970;2022-12-10T03:18:02;1.20;64.30
2409;DHT22;8463;48.094;7.970;2022-12-10T03:20:31;1.30;65.10
2409;DHT22;8463;48.094;7.970;2022-12-10T03:22:58;1.30;64.30
2409;DHT22;8463;48.094;7.970;2022-12-10T03:25:26;1.30;64.10
2409;DHT22;8463;48.094;7.970;2022-12-10T03:27:55;1.20;63.40
2409;DHT22;8463;48.094;7.970;2022-12-10T03:30:22;1.10;63.20
2409;DHT22;8463;48.094;7.970;2022-12-10T03:32:49;1.10;63.40
2409;DHT22;8463;48.094;7.970;2022-12-10T03:35:15;1.10;64.10
2409;DHT22;8463;48.094;7.970;2022-12-10T03:37:42;1.10;64.30
2409;DHT22;8463;48.094;7.970;2022-12-10T03:40:08;1.20;64.50
2409;DHT22;8463;48.094;7.970;2022-12-10T03:42:36;1.20;64.70
2409;DHT22;8463;48.094;7.970;2022-12-10T03:45:03;1.30;64.90
2409;DHT22;8463;48.094;7.970;2022-12-10T03:47:29;1.30;64.80
2409;DHT22;8463;48.094;7.970;2022-12-10T03:49:54;1.30;64.80
2409;DHT22;8463;48.094;7.970;2022-12-10T03:52:20;1.40;64.80
2409;DHT22;8463;48.094;7.970;2022-12-10T03:54:45;1.40;64.70
2409;DHT22;8463;48.094;7.970;2022-12-10T03:57:11;1.40;64.70
2409;DHT22;8463;48.094;7.970;2022-12-10T03:59:37;1.60;64.80
2409;DHT22;8463;48.094;7.970;2022-12-10T04:02:02;1.50;64.80
2409;DHT22;8463;48.094;7.970;2022-12-10T04:04:29;1.80;65.10
2409;DHT22;8463;48.094;7.970;2022-12-10T04:06:55;1.50;64.70
2409;DHT22;8463;48.094;7.970;2022-12-10T04:09:21;1.50;64.50
2409;DHT22;8463;48.094;7.970;2022-12-10T04:11:46;1.50;64.30
2409;DHT22;8463;48.094;7.970;2022-12-10T04:14:13;1.40;64.10
2409;DHT22;8463;48.094;7.970;2022-12-10T04:16:57;1.40;63.70
2409;DHT22;8463;48.094;7.970;2022-12-10T04:19:24;1.40;64.40
2409;DHT22;8463;48.094;7.970;2022-12-10T04:21:49;1.30;63.50
2409;DHT22;8463;48.094;7.970;2022-12-10T04:24:35;1.20;64.00
2409;DHT22;8463;48.094;7.970;2022-12-10T04:27:28;1.20;64.40
2409;DHT22;8463;48.094;7.970;2022-12-10T04:29:55;1.20;64.60
2409;DHT22;8463;48.094;7.970;2022-12-10T04:32:22;1.40;64.90
2409;DHT22;8463;48.094;7.970;2022-12-10T04:34:47;1.30;64.90
2409;DHT22;8463;48.094;7.970;2022-12-10T04:37:14;1.30;64.90
2409;DHT22;8463;48.094;7.970;2022-12-10T04:39:39;1.30;64.70
2409;DHT22;8463;48.094;7.970;2022-12-10T04:42:07;1.30;64.30
2409;DHT22;8463;48.094;7.970;2022-12-10T04:44:35;1.20;65.50
2409;DHT22;8463;48.094;7.970;2022-12-10T04:47:02;1.20;64.80
2409;DHT22;8463;48.094;7.970;2022-12-10T04:49:28;1.10;65.10
2409;DHT22;8463;48.094;7.970;2022-12-10T04:51:53;1.00;65.20
2409;DHT22;8463;48.094;7.970;2022-12-10T04:54:20;1.10;65.30
2409;DHT22;8463;48.094;7.970;2022-12-10T04:56:46;1.00;65.20
2409;DHT22;8463;48.094;7.970;2022-12-10T04:59:15;1.00;66.00
2409;DHT22;8463;48.094;7.970;2022-12-10T05:01:40;1.10;66.20
2409;DHT22;8463;48.094;7.970;2022-12-10T05:04:09;1.90;67.10
2409;DHT22;8463;48.094;7.970;2022-12-10T05:06:35;1.40;66.60
2409;DHT22;8463;48.094;7.970;2022-12-10T05:09:02;1.00;66.00
2409;DHT22;8463;48.094;7.970;2022-12-10T05:11:29;1.00;66.10
2409;DHT22;8463;48.094;7.970;2022-12-10T05:13:55;1.00;66.90
2409;DHT22;8463;48.094;7.970;2022-12-10T05:16:23;1.00;66.40
2409;DHT22;8463;48.094;7.970;2022-12-10T05:18:49;1.00;66.60
2409;DHT22;8463;48.094;7.970;2022-12-10T05:21:18;1.10;66.80
2409;DHT22;8463;48.094;7.970;2022-12-10T05:23:47;1.20;66.90
2409;DHT22;8463;48.094;7.970;2022-12-10T05:28:49;1.10;66.40
2409;DHT22;8463;48.094;7.970;2022-12-10T05:31:23;1.20;66.70
2409;DHT22;8463;48.094;7.970;2022-12-10T05:33:49;1.20;66.60
2409;DHT22;8463;48.094;7.970;2022-12-10T05:36:17;1.20;66.50
2409;DHT22;8463;48.094;7.970;2022-12-10T05:38:43;1.10;66.20
2409;DHT22;8463;48.094;7.970;2022-12-10T05:41:17;1.10;66.30
2409;DHT22;8463;48.094;7.970;2022-12-10T05:43:44;1.10;66.30
2409;DHT22;8463;48.094;7.970;2022-12-10T05:46:16;1.10;66.40
2409;DHT22;8463;48.094;7.970;2022-12-10T05:48:42;1.00;66.00
2409;DHT22;8463;48.094;7.970;2022-12-10T05:51:12;1.00;66.40
2409;DHT22;8463;48.094;7.970;2022-12-10T05:53:41;1.00;66.50
2409;DHT22;8463;48.094;7.970;2022-12-10T05:56:12;1.00;66.40
2409;DHT22;8463;48.094;7.970;2022-12-10T05:58:39;1.00;66.60
2409;DHT22;8463;48.094;7.970;2022-12-10T06:01:07;1.00;66.80
2409;DHT22;8463;48.094;7.970;2022-12-10T06:03:33;1.00;66.70
2409;DHT22;8463;48.094;7.970;2022-12-10T06:05:59;0.90;66.90
2409;DHT22;8463;48.094;7.970;2022-12-10T06:08:25;0.90;66.90
2409;DHT22;8463;48.094;7.970;2022-12-10T06:10:51;0.90;67.80
2409;DHT22;8463;48.094;7.970;2022-12-10T06:13:16;0.80;67.10
2409;DHT22;8463;48.094;7.970;2022-12-10T06:15:44;0.80;67.40
2409;DHT22;8463;48.094;7.970;2022-12-10T06:18:10;0.80;67.60
2409;DHT22;8463;48.094;7.970;2022-12-10T06:20:38;0.70;67.70
2409;DHT22;8463;48.094;7.970;2022-12-10T06:23:04;0.70;67.70
2409;DHT22;8463;48.094;7.970;2022-12-10T06:25:30;0.70;67.80
2409;DHT22;8463;48.094;7.970;2022-12-10T06:27:55;0.70;67.80
2409;DHT22;8463;48.094;7.970;2022-12-10T06:30:21;0.70;67.90
2409;DHT22;8463;48.094;7.970;2022-12-10T06:32:46;0.70;68.00
2409;DHT22;8463;48.094;7.970;2022-12-10T06:35:12;0.70;68.10
2409;DHT22;8463;48.094;7.970;2022-12-10T06:37:38;0.70;68.10
2409;DHT22;8463;48.094;7.970;2022-12-10T06:40:04;0.70;68.20
2409;DHT22;8463;48.094;7.970;2022-12-10T06:42:30;0.80;68.30
2409;DHT22;8463;48.094;7.970;2022-12-10T06:44:56;0.80;68.40
2409;DHT22;8463;48.094;7.970;2022-12-10T06:47:22;0.90;68.60
2409;DHT22;8463;48.094;7.970;2022-12-10T06:49:47;0.90;68.50
2409;DHT22;8463;48.094;7.970;2022-12-10T06:52:13;0.90;68.40
2409;DHT22;8463;48.094;7.970;2022-12-10T06:54:39;0.90;68.40
2409;DHT22;8463;48.094;7.970;2022-12-10T06:57:05;0.80;68.20
2409;DHT22;8463;48.094;7.970;2022-12-10T06:59:30;0.80;68.30
2409;DHT22;8463;48.094;7.970;2022-12-10T07:01:56;0.80;68.50
2409;DHT22;8463;48.094;7.970;2022-12-10T07:04:22;0.80;68.30
2409;DHT22;8463;48.094;7.970;2022-12-10T07:06:47;0.80;68.30
2409;DHT22;8463;48.094;7.970;2022-12-10T07:09:13;0.80;68.40
2409;DHT22;8463;48.094;7.970;2022-12-10T07:11:39;0.70;68.90
2409;DHT22;8463;48.094;7.970;2022-12-10T07:14:04;0.70;68.30
2409;DHT22;8463;48.094;7.970;2022-12-10T07:16:31;0.60;68.20
2409;DHT22;8463;48.094;7.970;2022-12-10T07:18:59;0.60;68.30
2409;DHT22;8463;48.094;7.970;2022-12-10T07:21:33;0.70;68.50
2409;DHT22;8463;48.094;7.970;2022-12-10T07:24:10;0.70;68.60
2409;DHT22;8463;48.094;7.970;2022-12-10T07:26:40;0.70;68.60
2409;DHT22;8463;48.094;7.970;2022-12-10T07:29:07;0.80;68.70
2409;DHT22;8463;48.094;7.970;2022-12-10T07:31:33;0.80;68.60
2409;DHT22;8463;48.094;7.970;2022-12-10T07:33:59;0.80;68.60
2409;DHT22;8463;48.094;7.970;2022-12-10T07:36:25;0.80;68.50
2409;DHT22;8463;48.094;7.970;2022-12-10T07:38:52;0.80;68.60
2409;DHT22;8463;48.094;7.970;2022-12-10T07:41:18;0.80;68.50
2409;DHT22;8463;48.094;7.970;2022-12-10T07:43:45;0.80;68.70
2409;DHT22;8463;48.094;7.970;2022-12-10T07:48:41;0.80;68.70
2409;DHT22;8463;48.094;7.970;2022-12-10T07:51:07;0.80;68.60
2409;DHT22;8463;48.094;7.970;2022-12-10T07:53:33;0.80;68.70
2409;DHT22;8463;48.094;7.970;2022-12-10T07:55:59;0.80;68.70
2409;DHT22;8463;48.094;7.970;2022-12-10T07:58:25;0.80;68.70
2409;DHT22;8463;48.094;7.970;2022-12-10T08:00:51;0.80;68.70
2409;DHT22;8463;48.094;7.970;2022-12-10T08:03:16;0.80;68.70
2409;DHT22;8463;48.094;7.970;2022-12-10T08:05:42;0.80;68.70
2409;DHT22;8463;48.094;7.970;2022-12-10T08:08:07;0.90;68.80
2409;DHT22;8463;48.094;7.970;2022-12-10T08:10:34;0.80;68.70
2409;DHT22;8463;48.094;7.970;2022-12-10T08:13:00;0.80;68.40
2409;DHT22;8463;48.094;7.970;2022-12-10T08:15:25;0.90;68.80
2409;DHT22;8463;48.094;7.970;2022-12-10T08:17:53;0.90;68.70
2409;DHT22;8463;48.094;7.970;2022-12-10T08:20:19;0.90;68.60
2409;DHT22;8463;48.094;7.970;2022-12-10T08:22:45;0.80;68.40
2409;DHT22;8463;48.094;7.970;2022-12-10T08:25:10;0.90;68.80
2409;DHT22;8463;48.094;7.970;2022-12-10T08:27:36;0.90;68.70
2409;DHT22;8463;48.094;7.970;2022-12-10T08:30:02;1.00;68.70
2409;DHT22;8463;48.094;7.970;2022-12-10T08:32:27;1.00;68.50
2409;DHT22;8463;48.094;7.970;2022-12-10T08:34:53;1.00;68.40
2409;DHT22;8463;48.094;7.970;2022-12-10T08:37:18;1.00;68.50
2409;DHT22;8463;48.094;7.970;2022-12-10T08:39:44;1.00;68.10
2409;DHT22;8463;48.094;7.970;2022-12-10T08:42:09;0.90;67.90
2409;DHT22;8463;48.094;7.970;2022-12-10T08:44:35;0.90;68.10
2409;DHT22;8463;48.094;7.970;2022-12-10T08:47:01;1.00;68.20
2409;DHT22;8463;48.094;7.970;2022-12-10T08:49:26;1.00;68.20
2409;DHT22;8463;48.094;7.970;2022-12-10T08:51:52;1.10;68.30
2409;DHT22;8463;48.094;7.970;2022-12-10T08:54:17;1.10;68.20
2409;DHT22;8463;48.094;7.970;2022-12-10T08:56:43;1.10;68.10
2409;DHT22;8463;48.094;7.970;2022-12-10T08:59:08;1.10;68.10
2409;DHT22;8463;48.094;7.970;2022-12-10T09:01:34;1.10;68.00
2409;DHT22;8463;48.094;7.970;2022-12-10T09:04:00;1.10;68.10
2409;DHT22;8463;48.094;7.970;2022-12-10T09:06:27;1.20;68.30
2409;DHT22;8463;48.094;7.970;2022-12-10T09:08:53;1.30;68.40
2409;DHT22;8463;48.094;7.970;2022-12-10T09:11:23;1.30;68.40
2409;DHT22;8463;48.094;7.970;2022-12-10T09:13:50;1.30;68.20
2409;DHT22;8463;48.094;7.970;2022-12-10T09:16:16;1.30;67.90
2409;DHT22;8463;48.094;7.970;2022-12-10T09:18:42;1.20;67.40
2409;DHT22;8463;48.094;7.970;2022-12-10T09:21:11;1.20;67.70
2409;DHT22;8463;48.094;7.970;2022-12-10T09:23:38;1.10;67.60
2409;DHT22;8463;48.094;7.970;2022-12-10T09:26:09;1.10;67.50
2409;DHT22;8463;48.094;7.970;2022-12-10T09:28:36;1.10;67.60
2409;DHT22;8463;48.094;7.970;2022-12-10T09:31:08;1.00;67.50
2409;DHT22;8463;48.094;7.970;2022-12-10T09:33:36;1.00;68.10
2409;DHT22;8463;48.094;7.970;2022-12-10T09:36:06;1.00;68.20
2409;DHT22;8463;48.094;7.970;2022-12-10T09:38:34;0.90;68.00
2409;DHT22;8463;48.094;7.970;2022-12-10T09:41:02;0.90;68.20
2409;DHT22;8463;48.094;7.970;2022-12-10T09:43:55;0.90;68.30
2409;DHT22;8463;48.094;7.970;2022-12-10T09:51:45;0.90;68.40
2409;DHT22;8463;48.094;7.970;2022-12-10T09:54:25;0.80;68.30
2409;DHT22;8463;48.094;7.970;2022-12-10T09:56:53;0.80;68.50
2409;DHT22;8463;48.094;7.970;2022-12-10T09:59:44;0.90;68.70
2409;DHT22;8463;48.094;7.970;2022-12-10T10:02:22;0.90;68.80
2409;DHT22;8463;48.094;7.970;2022-12-10T10:04:50;0.90;68.70
2409;DHT22;8463;48.094;7.970;2022-12-10T10:07:24;0.90;68.60
2409;DHT22;8463;48.094;7.970;2022-12-10T10:09:56;0.90;68.80
2409;DHT22;8463;48.094;7.970;2022-12-10T10:12:23;0.90;68.60
2409;DHT22;8463;48.094;7.970;2022-12-10T10:14:48;1.00;68.50
2409;DHT22;8463;48.094;7.970;2022-12-10T10:17:20;1.00;68.60
2409;DHT22;8463;48.094;7.970;2022-12-10T10:19:47;1.00;68.70
2409;DHT22;8463;48.094;7.970;2022-12-10T10:22:14;1.00;68.30
2409;DHT22;8463;48.094;7.970;2022-12-10T10:24:43;1.00;68.20
2409;DHT22;8463;48.094;7.970;2022-12-10T10:29:49;1.00;68.10
2409;DHT22;8463;48.094;7.970;2022-12-10T10:34:43;1.20;68.50
2409;DHT22;8463;48.094;7.970;2022-12-10T10:37:20;1.20;68.30
2409;DHT22;8463;48.094;7.970;2022-12-10T10:39:50;1.20;67.90
2409;DHT22;8463;48.094;7.970;2022-12-10T10:45:04;1.10;67.50
2409;DHT22;8463;48.094;7.970;2022-12-10T10:47:33;1.00;67.60
2409;DHT22;8463;48.094;7.970;2022-12-10T10:49:59;1.00;68.40
2409;DHT22;8463;48.094;7.970;2022-12-10T10:52:32;0.90;68.00
2409;DHT22;8463;48.094;7.970;2022-12-10T10:55:00;0.90;68.20
2409;DHT22;8463;48.094;7.970;2022-12-10T10:57:36;0.90;68.20
2409;DHT22;8463;48.094;7.970;2022-12-10T11:00:22;0.90;68.10
2409;DHT22;8463;48.094;7.970;2022-12-10T11:02:48;0.90;68.30
2409;DHT22;8463;48.094;7.970;2022-12-10T11:05:26;1.20;69.10
2409;DHT22;8463;48.094;7.970;2022-12-10T11:08:01;1.40;68.80
2409;DHT22;8463;48.094;7.970;2022-12-10T11:10:28;1.20;68.30
2409;DHT22;8463;48.094;7.970;2022-12-10T11:15:37;1.00;67.80
2409;DHT22;8463;48.094;7.970;2022-12-10T11:18:27;1.10;68.40
2409;DHT22;8463;48.094;7.970;2022-12-10T11:23:27;1.00;67.80
2409;DHT22;8463;48.094;7.970;2022-12-10T11:26:06;1.00;68.00
2409;DHT22;8463;48.094;7.970;2022-12-10T11:34:48;0.90;67.50
2409;DHT22;8463;48.094;7.970;2022-12-10T11:51:49;0.90;67.20
2409;DHT22;8463;48.094;7.970;2022-12-10T11:59:56;1.00;67.70
2409;DHT22;8463;48.094;7.970;2022-12-10T12:13:16;1.10;67.00
2409;DHT22;8463;48.094;7.970;2022-12-10T12:15:57;1.10;66.90
2409;DHT22;8463;48.094;7.970;2022-12-10T12:21:11;1.00;66.80
2409;DHT22;8463;48.094;7.970;2022-12-10T12:28:47;0.80;67.50
2409;DHT22;8463;48.094;7.970;2022-12-10T12:31:21;0.80;67.60
2409;DHT22;8463;48.094;7.970;2022-12-10T12:33:51;0.80;67.90
2409;DHT22;8463;48.094;7.970;2022-12-10T12:36:24;0.80;67.80
2409;DHT22;8463;48.094;7.970;2022-12-10T12:44:32;0.70;67.80
2409;DHT22;8463;48.094;7.970;2022-12-10T12:47:09;0.70;68.00
2409;DHT22;8463;48.094;7.970;2022-12-10T12:49:38;0.80;67.80
2409;DHT22;8463;48.094;7.970;2022-12-10T12:54:57;0.80;67.90
2409;DHT22;8463;48.094;7.970;2022-12-10T12:57:43;0.90;67.80
2409;DHT22;8463;48.094;7.970;2022-12-10T13:00:17;1.00;67.30
2409;DHT22;8463;48.094;7.970;2022-12-10T13:03:18;1.00;66.60
2409;DHT22;8463;48.094;7.970;2022-12-10T13:05:45;0.90;66.60
2409;DHT22;8463;48.094;7.970;2022-12-10T13:13:40;0.80;66.80
2409;DHT22;8463;48.094;7.970;2022-12-10T13:25:05;0.70;67.70
2409;DHT22;8463;48.094;7.970;2022-12-10T13:27:33;0.70;67.80
2409;DHT22;8463;48.094;7.970;2022-12-10T13:32:53;0.70;67.90
2409;DHT22;8463;48.094;7.970;2022-12-10T13:35:31;0.80;68.20
2409;DHT22;8463;48.094;7.970;2022-12-10T13:38:19;0.90;68.20
2409;DHT22;8463;48.094;7.970;2022-12-10T13:40:57;0.80;67.70
2409;DHT22;8463;48.094;7.970;2022-12-10T13:43:41;0.80;67.90
2409;DHT22;8463;48.094;7.970;2022-12-10T13:47:04;0.90;68.00
2409;DHT22;8463;48.094;7.970;2022-12-10T13:49:33;0.80;67.70
2409;DHT22;8463;48.094;7.970;2022-12-10T13:52:05;0.80;67.50
2409;DHT22;8463;48.094;7.970;2022-12-10T14:04:03;0.90;67.60
2409;DHT22;8463;48.094;7.970;2022-12-10T14:06:51;0.90;67.70
2409;DHT22;8463;48.094;7.970;2022-12-10T14:09:27;0.90;67.10
2409;DHT22;8463;48.094;7.970;2022-12-10T14:12:08;0.90;67.00
2409;DHT22;8463;48.094;7.970;2022-12-10T14:14:38;0.90;67.10
2409;DHT22;8463;48.094;7.970;2022-12-10T14:17:13;0.90;66.90
2409;DHT22;8463;48.094;7.970;2022-12-10T14:19:42;0.90;67.00
2409;DHT22;8463;48.094;7.970;2022-12-10T14:22:12;0.90;66.60
2409;DHT22;8463;48.094;7.970;2022-12-10T14:24:40;0.80;67.10
2409;DHT22;8463;48.094;7.970;2022-12-10T14:27:20;0.80;67.10
2409;DHT22;8463;48.094;7.970;2022-12-10T14:29:57;0.80;67.50
2409;DHT22;8463;48.094;7.970;2022-12-10T14:32:33;0.80;67.80
2409;DHT22;8463;48.094;7.970;2022-12-10T14:35:00;0.90;67.40
2409;DHT22;8463;48.094;7.970;2022-12-10T14:37:31;0.80;67.20
2409;DHT22;8463;48.094;7.970;2022-12-10T14:39:59;0.80;67.50
2409;DHT22;8463;48.094;7.970;2022-12-10T14:42:25;0.80;67.50
2409;DHT22;8463;48.094;7.970;2022-12-10T14:44:57;0.80;67.90
2409;DHT22;8463;48.094;7.970;2022-12-10T14:47:23;0.80;67.90
2409;DHT22;8463;48.094;7.970;2022-12-10T14:49:51;0.80;68.10
2409;DHT22;8463;48.094;7.970;2022-12-10T14:52:21;0.70;67.90
2409;DHT22;8463;48.094;7.970;2022-12-10T14:54:48;0.70;67.90
2409;DHT22;8463;48.094;7.970;2022-12-10T15:00:07;0.70;68.00
2409;DHT22;8463;48.094;7.970;2022-12-10T15:02:40;0.70;68.20
2409;DHT22;8463;48.094;7.970;2022-12-10T15:05:27;0.70;68.30
2409;DHT22;8463;48.094;7.970;2022-12-10T15:08:03;0.70;68.30
2409;DHT22;8463;48.094;7.970;2022-12-10T15:10:38;0.60;68.20
2409;DHT22;8463;48.094;7.970;2022-12-10T15:13:05;0.70;68.50
2409;DHT22;8463;48.094;7.970;2022-12-10T15:15:36;0.60;68.60
2409;DHT22;8463;48.094;7.970;2022-12-10T15:21:10;0.60;68.50
2409;DHT22;8463;48.094;7.970;2022-12-10T15:23:36;0.60;68.60
2409;DHT22;8463;48.094;7.970;2022-12-10T15:28:42;0.60;68.60
2409;DHT22;8463;48.094;7.970;2022-12-10T15:33:56;0.70;68.70
2409;DHT22;8463;48.094;7.970;2022-12-10T15:38:57;0.50;68.50
2409;DHT22;8463;48.094;7.970;2022-12-10T15:41:46;0.50;68.50
2409;DHT22;8463;48.094;7.970;2022-12-10T15:47:02;0.60;68.60
2409;DHT22;8463;48.094;7.970;2022-12-10T15:49:31;0.60;68.50
2409;DHT22;8463;48.094;7.970;2022-12-10T15:51:57;0.50;68.50
2409;DHT22;8463;48.094;7.970;2022-12-10T15:56:55;0.50;68.50
2409;DHT22;8463;48.094;7.970;2022-12-10T15:59:21;0.50;68.50
2409;DHT22;8463;48.094;7.970;2022-12-10T16:01:47;0.50;68.50
2409;DHT22;8463;48.094;7.970;2022-12-10T16:04:12;0.50;68.50
2409;DHT22;8463;48.094;7.970;2022-12-10T16:06:39;0.60;69.10
2409;DHT22;8463;48.094;7.970;2022-12-10T16:09:07;0.60;68.60
2409;DHT22;8463;48.094;7.970;2022-12-10T16:11:33;0.60;68.60
2409;DHT22;8463;48.094;7.970;2022-12-10T16:14:01;0.70;68.70
2409;DHT22;8463;48.094;7.970;2022-12-10T16:16:28;0.60;68.60
2409;DHT22;8463;48.094;7.970;2022-12-10T16:18:54;0.60;68.60
2409;DHT22;8463;48.094;7.970;2022-12-10T16:21:20;0.60;68.60
2409;DHT22;8463;48.094;7.970;2022-12-10T16:23:46;0.60;68.60
2409;DHT22;8463;48.094;7.970;2022-12-10T16:26:20;0.70;68.70
2409;DHT22;8463;48.094;7.970;2022-12-10T16:28:47;0.70;68.70
2409;DHT22;8463;48.094;7.970;2022-12-10T16:31:19;0.70;68.60
2409;DHT22;8463;48.094;7.970;2022-12-10T16:33:45;0.80;68.70
2409;DHT22;8463;48.094;7.970;2022-12-10T16:36:12;0.80;68.70
2409;DHT22;8463;48.094;7.970;2022-12-10T16:38:39;0.90;68.80
2409;DHT22;8463;48.094;7.970;2022-12-10T16:41:18;0.90;68.80
2409;DHT22;8463;48.094;7.970;2022-12-10T16:43:44;0.90;68.80
2409;DHT22;8463;48.094;7.970;2022-12-10T16:46:13;0.90;68.80
2409;DHT22;8463;48.094;7.970;2022-12-10T16:48:39;1.00;68.90
2409;DHT22;8463;48.094;7.970;2022-12-10T16:51:21;1.00;68.40
2409;DHT22;8463;48.094;7.970;2022-12-10T16:53:47;1.00;68.40
2409;DHT22;8463;48.094;7.970;2022-12-10T16:56:14;1.00;68.40
2409;DHT22;8463;48.094;7.970;2022-12-10T16:58:40;1.00;68.20
2409;DHT22;8463;48.094;7.970;2022-12-10T17:01:16;0.90;67.70
2409;DHT22;8463;48.094;7.970;2022-12-10T17:03:42;0.90;67.70
2409;DHT22;8463;48.094;7.970;2022-12-10T17:06:11;0.90;67.60
2409;DHT22;8463;48.094;7.970;2022-12-10T17:08:37;0.90;67.70
2409;DHT22;8463;48.094;7.970;2022-12-10T17:13:57;0.90;67.50
2409;DHT22;8463;48.094;7.970;2022-12-10T17:16:23;0.90;67.20
2409;DHT22;8463;48.094;7.970;2022-12-10T17:18:49;0.10;66.70
2409;DHT22;8463;48.094;7.970;2022-12-10T17:21:14;0.80;67.40
2409;DHT22;8463;48.094;7.970;2022-12-10T17:23:40;0.80;67.30
2409;DHT22;8463;48.094;7.970;2022-12-10T17:26:06;0.80;67.10
2409;DHT22;8463;48.094;7.970;2022-12-10T17:28:33;0.80;67.60
2409;DHT22;8463;48.094;7.970;2022-12-10T17:30:58;0.70;67.40
2409;DHT22;8463;48.094;7.970;2022-12-10T17:33:24;0.70;67.60
2409;DHT22;8463;48.094;7.970;2022-12-10T17:35:52;0.70;67.70
2409;DHT22;8463;48.094;7.970;2022-12-10T17:38:20;0.70;67.90
2409;DHT22;8463;48.094;7.970;2022-12-10T17:40:47;0.70;67.90
2409;DHT22;8463;48.094;7.970;2022-12-10T17:43:13;0.70;67.80
2409;DHT22;8463;48.094;7.970;2022-12-10T17:45:40;0.70;67.60
2409;DHT22;8463;48.094;7.970;2022-12-10T17:48:06;0.70;67.60
2409;DHT22;8463;48.094;7.970;2022-12-10T17:50:36;0.60;67.70
2409;DHT22;8463;48.094;7.970;2022-12-10T17:53:05;0.60;68.40
2409;DHT22;8463;48.094;7.970;2022-12-10T17:55:36;0.70;68.20
2409;DHT22;8463;48.094;7.970;2022-12-10T17:58:02;0.70;68.40
2409;DHT22;8463;48.094;7.970;2022-12-10T18:00:32;0.70;68.20
2409;DHT22;8463;48.094;7.970;2022-12-10T18:02:58;0.70;67.50
2409;DHT22;8463;48.094;7.970;2022-12-10T18:05:24;0.70;67.70
2409;DHT22;8463;48.094;7.970;2022-12-10T18:07:51;0.70;67.50
2409;DHT22;8463;48.094;7.970;2022-12-10T18:10:20;0.70;67.60
2409;DHT22;8463;48.094;7.970;2022-12-10T18:12:47;0.70;67.70
2409;DHT22;8463;48.094;7.970;2022-12-10T18:15:14;0.80;67.80
2409;DHT22;8463;48.094;7.970;2022-12-10T18:17:39;0.80;67.50
2409;DHT22;8463;48.094;7.970;2022-12-10T18:20:06;0.80;67.50
2409;DHT22;8463;48.094;7.970;2022-12-10T18:22:33;0.90;67.60
2409;DHT22;8463;48.094;7.970;2022-12-10T18:25:00;0.90;67.60
2409;DHT22;8463;48.094;7.970;2022-12-10T18:27:26;0.90;67.30
2409;DHT22;8463;48.094;7.970;2022-12-10T18:29:51;0.90;67.30
2409;DHT22;8463;48.094;7.970;2022-12-10T18:32:17;0.90;67.10
2409;DHT22;8463;48.094;7.970;2022-12-10T18:34:42;0.90;66.90
2409;DHT22;8463;48.094;7.970;2022-12-10T18:37:10;0.90;67.00
2409;DHT22;8463;48.094;7.970;2022-12-10T18:39:35;0.90;67.00
2409;DHT22;8463;48.094;7.970;2022-12-10T18:42:02;0.90;66.80
2409;DHT22;8463;48.094;7.970;2022-12-10T18:44:28;0.90;66.80
2409;DHT22;8463;48.094;7.970;2022-12-10T18:46:56;0.90;66.60
2409;DHT22;8463;48.094;7.970;2022-12-10T18:49:22;0.90;66.80
2409;DHT22;8463;48.094;7.970;2022-12-10T18:51:48;0.90;66.80
2409;DHT22;8463;48.094;7.970;2022-12-10T18:54:14;1.00;67.00
2409;DHT22;8463;48.094;7.970;2022-12-10T18:56:41;1.00;66.90